sensor_id;sensor_type;location;lat;lon;timestamp;P1;durP1;ratioP1;P2;durP2;ratioP2
39502;SDS011;26970;49.900;10.774;2024-03-06T00:00:31;27.23;;;13.88;;
39502;SDS011;26970;49.900;10.774;2024-03-06T00:02:58;28.95;;;13.63;;
39502;SDS011;26970;49.900;10.774;2024-03-06T00:05:23;30.00;;;14.00;;
39502;SDS011;26970;49.900;10.774;2024-03-06T00:07:49;27.80;;;13.85;;
39502;SDS011;26970;49.900;10.774;2024-03-06T00:10:14;31.13;;;14.27;;
39502;SDS011;26970;49.900;10.774;2024-03-06T00:12:40;28.83;;;13.70;;
39502;SDS011;26970;49.900;10.774;2024-03-06T00:15:06;34.83;;;15.23;;
39502;SDS011;26970;49.900;10.774;2024-03-06T00:17:32;28.15;;;13.73;;
39502;SDS011;26970;49.900;10.774;2024-03-06T00:19:57;31.60;;;14.18;;
39502;SDS011;26970;49.900;10.774;2024-03-06T00:22:23;31.08;;;13.77;;
39502;SDS011;26970;49.900;10.774;2024-03-06T00:24:48;29.60;;;13.35;;
39502;SDS011;26970;49.900;10.774;2024-03-06T00:27:14;30.45;;;13.88;;
39502;SDS011;26970;49.900;10.774;2024-03-06T00:29:39;33.00;;;14.27;;
39502;SDS011;26970;49.900;10.774;2024-03-06T00:32:05;34.03;;;14.43;;
39502;SDS011;26970;49.900;10.774;2024-03-06T00:34:30;28.85;;;13.65;;
39502;SDS011;26970;49.900;10.774;2024-03-06T00:36:56;26.58;;;13.70;;
39502;SDS011;26970;49.900;10.774;2024-03-06T00:39:22;29.58;;;15.05;;
39502;SDS011;26970;49.900;10.774;2024-03-06T00:41:47;30.95;;;14.57;;
39502;SDS011;26970;49.900;10.774;2024-03-06T00:44:15;35.10;;;15.00;;
39502;SDS011;26970;49.900;10.774;2024-03-06T00:46:42;33.10;;;14.02;;
39502;SDS011;26970;49.900;10.774;2024-03-06T00:49:07;31.52;;;14.40;;
39502;SDS011;26970;49.900;10.774;2024-03-06T00:51:33;30.23;;;14.27;;
39502;SDS011;26970;49.900;10.774;2024-03-06T00:54:01;34.75;;;14.38;;
39502;SDS011;26970;49.900;10.774;2024-03-06T00:56:26;30.95;;;13.95;;
39502;SDS011;26970;49.900;10.774;2024-03-06T00:58:52;29.13;;;13.23;;
39502;SDS011;26970;49.900;10.774;2024-03-06T01:01:17;29.85;;;13.65;;
39502;SDS011;26970;49.900;10.774;2024-03-06T01:03:43;31.90;;;14.00;;
39502;SDS011;26970;49.900;10.774;2024-03-06T01:06:09;32.72;;;14.60;;
39502;SDS011;26970;49.900;10.774;2024-03-06T01:08:35;33.35;;;15.40;;
39502;SDS011;26970;49.900;10.774;2024-03-06T01:11:01;31.00;;;14.98;;
39502;SDS011;26970;49.900;10.774;2024-03-06T01:13:26;35.65;;;15.63;;
39502;SDS011;26970;49.900;10.774;2024-03-06T01:15:52;35.10;;;15.25;;
39502;SDS011;26970;49.900;10.774;2024-03-06T01:18:18;34.22;;;14.98;;
39502;SDS011;26970;49.900;10.774;2024-03-06T01:20:43;38.55;;;16.73;;
39502;SDS011;26970;49.900;10.774;2024-03-06T01:23:09;33.95;;;14.57;;
39502;SDS011;26970;49.900;10.774;2024-03-06T01:25:34;30.42;;;14.55;;
39502;SDS011;26970;49.900;10.774;2024-03-06T01:28:00;34.30;;;16.17;;
39502;SDS011;26970;49.900;10.774;2024-03-06T01:30:25;34.78;;;15.25;;
39502;SDS011;26970;49.900;10.774;2024-03-06T01:32:51;36.03;;;16.65;;
39502;SDS011;26970;49.900;10.774;2024-03-06T01:35:17;36.42;;;15.90;;
39502;SDS011;26970;49.900;10.774;2024-03-06T01:37:43;37.28;;;16.58;;
39502;SDS011;26970;49.900;10.774;2024-03-06T01:40:09;35.42;;;17.85;;
39502;SDS011;26970;49.900;10.774;2024-03-06T01:42:35;38.03;;;15.85;;
39502;SDS011;26970;49.900;10.774;2024-03-06T01:45:01;34.63;;;16.00;;
39502;SDS011;26970;49.900;10.774;2024-03-06T01:47:28;33.00;;;14.40;;
39502;SDS011;26970;49.900;10.774;2024-03-06T01:49:55;40.50;;;16.70;;
39502;SDS011;26970;49.900;10.774;2024-03-06T01:52:21;33.38;;;16.17;;
39502;SDS011;26970;49.900;10.774;2024-03-06T01:54:47;36.53;;;16.05;;
39502;SDS011;26970;49.900;10.774;2024-03-06T01:57:14;38.78;;;17.13;;
39502;SDS011;26970;49.900;10.774;2024-03-06T01:59:42;35.30;;;15.50;;
39502;SDS011;26970;49.900;10.774;2024-03-06T02:02:08;39.60;;;15.85;;
39502;SDS011;26970;49.900;10.774;2024-03-06T02:04:35;35.60;;;15.55;;
39502;SDS011;26970;49.900;10.774;2024-03-06T02:07:00;43.42;;;16.45;;
39502;SDS011;26970;49.900;10.774;2024-03-06T02:09:27;32.67;;;15.73;;
39502;SDS011;26970;49.900;10.774;2024-03-06T02:11:53;39.00;;;15.98;;
39502;SDS011;26970;49.900;10.774;2024-03-06T02:14:19;33.40;;;15.02;;
39502;SDS011;26970;49.900;10.774;2024-03-06T02:16:44;36.00;;;16.90;;
39502;SDS011;26970;49.900;10.774;2024-03-06T02:19:10;38.33;;;16.35;;
39502;SDS011;26970;49.900;10.774;2024-03-06T02:21:36;36.53;;;16.42;;
39502;SDS011;26970;49.900;10.774;2024-03-06T02:24:01;33.47;;;16.40;;
39502;SDS011;26970;49.900;10.774;2024-03-06T02:26:27;33.97;;;15.88;;
39502;SDS011;26970;49.900;10.774;2024-03-06T02:28:53;36.50;;;16.70;;
39502;SDS011;26970;49.900;10.774;2024-03-06T02:31:20;37.92;;;17.60;;
39502;SDS011;26970;49.900;10.774;2024-03-06T02:33:47;44.40;;;18.65;;
39502;SDS011;26970;49.900;10.774;2024-03-06T02:36:13;38.65;;;17.30;;
39502;SDS011;26970;49.900;10.774;2024-03-06T02:38:40;39.83;;;16.50;;
39502;SDS011;26970;49.900;10.774;2024-03-06T02:41:06;40.85;;;15.80;;
39502;SDS011;26970;49.900;10.774;2024-03-06T02:43:34;37.42;;;16.98;;
39502;SDS011;26970;49.900;10.774;2024-03-06T02:46:01;43.55;;;16.25;;
39502;SDS011;26970;49.900;10.774;2024-03-06T02:48:26;36.78;;;17.10;;
39502;SDS011;26970;49.900;10.774;2024-03-06T02:50:52;37.20;;;17.45;;
39502;SDS011;26970;49.900;10.774;2024-03-06T02:53:17;39.35;;;16.17;;
39502;SDS011;26970;49.900;10.774;2024-03-06T02:55:43;40.83;;;18.33;;
39502;SDS011;26970;49.900;10.774;2024-03-06T02:58:09;40.65;;;18.40;;
39502;SDS011;26970;49.900;10.774;2024-03-06T03:00:35;46.95;;;17.95;;
39502;SDS011;26970;49.900;10.774;2024-03-06T03:03:00;41.20;;;18.92;;
39502;SDS011;26970;49.900;10.774;2024-03-06T03:05:26;42.95;;;17.30;;
39502;SDS011;26970;49.900;10.774;2024-03-06T03:07:51;40.00;;;18.05;;
39502;SDS011;26970;49.900;10.774;2024-03-06T03:10:17;42.25;;;20.08;;
39502;SDS011;26970;49.900;10.774;2024-03-06T03:12:43;47.15;;;20.42;;
39502;SDS011;26970;49.900;10.774;2024-03-06T03:15:09;43.03;;;19.60;;
39502;SDS011;26970;49.900;10.774;2024-03-06T03:17:35;41.13;;;18.67;;
39502;SDS011;26970;49.900;10.774;2024-03-06T03:20:03;41.30;;;18.30;;
39502;SDS011;26970;49.900;10.774;2024-03-06T03:22:35;41.15;;;18.65;;
39502;SDS011;26970;49.900;10.774;2024-03-06T03:25:02;46.72;;;19.65;;
39502;SDS011;26970;49.900;10.774;2024-03-06T03:27:28;43.30;;;18.92;;
39502;SDS011;26970;49.900;10.774;2024-03-06T03:29:53;45.05;;;20.63;;
39502;SDS011;26970;49.900;10.774;2024-03-06T03:32:19;47.17;;;20.73;;
39502;SDS011;26970;49.900;10.774;2024-03-06T03:34:44;45.92;;;19.35;;
39502;SDS011;26970;49.900;10.774;2024-03-06T03:37:10;47.58;;;20.13;;
39502;SDS011;26970;49.900;10.774;2024-03-06T03:39:37;49.53;;;21.10;;
39502;SDS011;26970;49.900;10.774;2024-03-06T03:42:03;54.20;;;21.08;;
39502;SDS011;26970;49.900;10.774;2024-03-06T03:44:28;56.30;;;21.27;;
39502;SDS011;26970;49.900;10.774;2024-03-06T03:46:54;44.75;;;20.63;;
39502;SDS011;26970;49.900;10.774;2024-03-06T03:49:19;51.05;;;20.67;;
39502;SDS011;26970;49.900;10.774;2024-03-06T03:51:45;53.28;;;21.73;;
39502;SDS011;26970;49.900;10.774;2024-03-06T03:54:10;45.53;;;20.45;;
39502;SDS011;26970;49.900;10.774;2024-03-06T03:56:36;41.95;;;19.63;;
39502;SDS011;26970;49.900;10.774;2024-03-06T03:59:02;47.42;;;19.55;;
39502;SDS011;26970;49.900;10.774;2024-03-06T04:01:28;48.08;;;20.65;;
39502;SDS011;26970;49.900;10.774;2024-03-06T04:03:53;41.85;;;19.05;;
39502;SDS011;26970;49.900;10.774;2024-03-06T04:06:19;49.50;;;20.40;;
39502;SDS011;26970;49.900;10.774;2024-03-06T04:08:44;49.72;;;20.33;;
39502;SDS011;26970;49.900;10.774;2024-03-06T04:11:10;46.80;;;19.83;;
39502;SDS011;26970;49.900;10.774;2024-03-06T04:13:36;45.13;;;19.77;;
39502;SDS011;26970;49.900;10.774;2024-03-06T04:16:03;48.97;;;20.30;;
39502;SDS011;26970;49.900;10.774;2024-03-06T04:18:29;41.35;;;18.77;;
39502;SDS011;26970;49.900;10.774;2024-03-06T04:20:58;45.30;;;20.40;;
39502;SDS011;26970;49.900;10.774;2024-03-06T04:23:26;49.22;;;19.25;;
39502;SDS011;26970;49.900;10.774;2024-03-06T04:25:52;42.75;;;19.67;;
39502;SDS011;26970;49.900;10.774;2024-03-06T04:28:18;44.97;;;18.98;;
39502;SDS011;26970;49.900;10.774;2024-03-06T04:30:43;45.30;;;19.25;;
39502;SDS011;26970;49.900;10.774;2024-03-06T04:33:09;44.97;;;20.65;;
39502;SDS011;26970;49.900;10.774;2024-03-06T04:35:38;47.92;;;19.98;;
39502;SDS011;26970;49.900;10.774;2024-03-06T04:38:04;44.38;;;18.05;;
39502;SDS011;26970;49.900;10.774;2024-03-06T04:40:30;47.25;;;19.52;;
39502;SDS011;26970;49.900;10.774;2024-03-06T04:42:56;45.28;;;20.52;;
39502;SDS011;26970;49.900;10.774;2024-03-06T04:45:22;45.17;;;20.25;;
39502;SDS011;26970;49.900;10.774;2024-03-06T04:47:47;42.92;;;18.73;;
39502;SDS011;26970;49.900;10.774;2024-03-06T04:50:13;48.70;;;19.70;;
39502;SDS011;26970;49.900;10.774;2024-03-06T04:52:42;47.30;;;19.90;;
39502;SDS011;26970;49.900;10.774;2024-03-06T04:55:09;47.08;;;18.38;;
39502;SDS011;26970;49.900;10.774;2024-03-06T04:57:36;58.33;;;20.90;;
39502;SDS011;26970;49.900;10.774;2024-03-06T05:00:02;42.75;;;18.90;;
39502;SDS011;26970;49.900;10.774;2024-03-06T05:02:34;48.78;;;18.95;;
39502;SDS011;26970;49.900;10.774;2024-03-06T05:05:01;46.13;;;20.05;;
39502;SDS011;26970;49.900;10.774;2024-03-06T05:07:28;46.70;;;18.60;;
39502;SDS011;26970;49.900;10.774;2024-03-06T05:09:55;43.13;;;18.52;;
39502;SDS011;26970;49.900;10.774;2024-03-06T05:12:22;48.15;;;19.55;;
39502;SDS011;26970;49.900;10.774;2024-03-06T05:14:51;46.53;;;20.10;;
39502;SDS011;26970;49.900;10.774;2024-03-06T05:17:17;43.47;;;19.05;;
39502;SDS011;26970;49.900;10.774;2024-03-06T05:19:43;43.08;;;16.35;;
39502;SDS011;26970;49.900;10.774;2024-03-06T05:22:09;45.85;;;17.70;;
39502;SDS011;26970;49.900;10.774;2024-03-06T05:24:36;38.35;;;17.60;;
39502;SDS011;26970;49.900;10.774;2024-03-06T05:27:05;48.70;;;18.40;;
39502;SDS011;26970;49.900;10.774;2024-03-06T05:29:31;44.45;;;17.08;;
39502;SDS011;26970;49.900;10.774;2024-03-06T05:31:56;41.67;;;18.50;;
39502;SDS011;26970;49.900;10.774;2024-03-06T05:34:22;44.78;;;17.67;;
39502;SDS011;26970;49.900;10.774;2024-03-06T05:36:48;41.47;;;17.63;;
39502;SDS011;26970;49.900;10.774;2024-03-06T05:39:14;39.10;;;16.70;;
39502;SDS011;26970;49.900;10.774;2024-03-06T05:41:39;41.42;;;17.15;;
39502;SDS011;26970;49.900;10.774;2024-03-06T05:44:06;38.00;;;16.77;;
39502;SDS011;26970;49.900;10.774;2024-03-06T05:46:32;36.53;;;16.15;;
39502;SDS011;26970;49.900;10.774;2024-03-06T05:48:58;36.95;;;16.13;;
39502;SDS011;26970;49.900;10.774;2024-03-06T05:51:24;37.85;;;15.63;;
39502;SDS011;26970;49.900;10.774;2024-03-06T05:53:49;36.53;;;15.68;;
39502;SDS011;26970;49.900;10.774;2024-03-06T05:56:16;41.55;;;16.80;;
39502;SDS011;26970;49.900;10.774;2024-03-06T05:58:43;36.45;;;16.00;;
39502;SDS011;26970;49.900;10.774;2024-03-06T06:01:11;38.97;;;16.75;;
39502;SDS011;26970;49.900;10.774;2024-03-06T06:03:36;38.90;;;14.60;;
39502;SDS011;26970;49.900;10.774;2024-03-06T06:06:03;39.75;;;17.00;;
39502;SDS011;26970;49.900;10.774;2024-03-06T06:08:29;33.90;;;14.80;;
39502;SDS011;26970;49.900;10.774;2024-03-06T06:10:55;36.13;;;15.90;;
39502;SDS011;26970;49.900;10.774;2024-03-06T06:13:21;35.80;;;14.13;;
39502;SDS011;26970;49.900;10.774;2024-03-06T06:15:46;39.03;;;15.07;;
39502;SDS011;26970;49.900;10.774;2024-03-06T06:18:12;40.25;;;14.48;;
39502;SDS011;26970;49.900;10.774;2024-03-06T06:20:37;37.63;;;13.35;;
39502;SDS011;26970;49.900;10.774;2024-03-06T06:23:03;34.92;;;13.50;;
39502;SDS011;26970;49.900;10.774;2024-03-06T06:25:29;41.03;;;14.65;;
39502;SDS011;26970;49.900;10.774;2024-03-06T06:27:55;38.22;;;15.88;;
39502;SDS011;26970;49.900;10.774;2024-03-06T06:30:20;36.05;;;14.27;;
39502;SDS011;26970;49.900;10.774;2024-03-06T06:32:46;37.13;;;14.93;;
39502;SDS011;26970;49.900;10.774;2024-03-06T06:35:11;38.97;;;16.02;;
39502;SDS011;26970;49.900;10.774;2024-03-06T06:37:38;38.35;;;15.70;;
39502;SDS011;26970;49.900;10.774;2024-03-06T06:40:06;33.60;;;15.75;;
39502;SDS011;26970;49.900;10.774;2024-03-06T06:42:32;35.20;;;15.38;;
39502;SDS011;26970;49.900;10.774;2024-03-06T06:44:59;42.28;;;15.00;;
39502;SDS011;26970;49.900;10.774;2024-03-06T06:47:25;32.65;;;15.20;;
39502;SDS011;26970;49.900;10.774;2024-03-06T06:49:51;39.20;;;17.25;;
39502;SDS011;26970;49.900;10.774;2024-03-06T06:52:17;34.35;;;14.30;;
39502;SDS011;26970;49.900;10.774;2024-03-06T06:54:42;39.00;;;15.25;;
39502;SDS011;26970;49.900;10.774;2024-03-06T06:57:08;37.00;;;17.23;;
39502;SDS011;26970;49.900;10.774;2024-03-06T06:59:34;40.95;;;15.77;;
39502;SDS011;26970;49.900;10.774;2024-03-06T07:02:00;45.35;;;16.70;;
39502;SDS011;26970;49.900;10.774;2024-03-06T07:04:27;39.92;;;16.02;;
39502;SDS011;26970;49.900;10.774;2024-03-06T07:06:52;37.38;;;16.33;;
39502;SDS011;26970;49.900;10.774;2024-03-06T07:09:18;34.47;;;15.93;;
39502;SDS011;26970;49.900;10.774;2024-03-06T07:11:44;39.90;;;15.70;;
39502;SDS011;26970;49.900;10.774;2024-03-06T07:14:11;43.17;;;17.10;;
39502;SDS011;26970;49.900;10.774;2024-03-06T07:16:43;41.60;;;17.23;;
39502;SDS011;26970;49.900;10.774;2024-03-06T07:19:09;42.63;;;18.35;;
39502;SDS011;26970;49.900;10.774;2024-03-06T07:21:35;40.78;;;16.23;;
39502;SDS011;26970;49.900;10.774;2024-03-06T07:24:02;39.70;;;15.85;;
39502;SDS011;26970;49.900;10.774;2024-03-06T07:26:29;40.03;;;17.35;;
39502;SDS011;26970;49.900;10.774;2024-03-06T07:28:55;35.17;;;14.95;;
39502;SDS011;26970;49.900;10.774;2024-03-06T07:31:21;39.97;;;16.48;;
39502;SDS011;26970;49.900;10.774;2024-03-06T07:33:46;38.80;;;16.73;;
39502;SDS011;26970;49.900;10.774;2024-03-06T07:36:12;43.55;;;17.48;;
39502;SDS011;26970;49.900;10.774;2024-03-06T07:38:37;36.35;;;17.73;;
39502;SDS011;26970;49.900;10.774;2024-03-06T07:41:03;38.17;;;18.15;;
39502;SDS011;26970;49.900;10.774;2024-03-06T07:43:28;44.90;;;18.15;;
39502;SDS011;26970;49.900;10.774;2024-03-06T07:45:54;39.42;;;16.23;;
39502;SDS011;26970;49.900;10.774;2024-03-06T07:48:20;39.67;;;15.13;;
39502;SDS011;26970;49.900;10.774;2024-03-06T07:50:46;36.90;;;16.20;;
39502;SDS011;26970;49.900;10.774;2024-03-06T07:53:11;42.03;;;16.83;;
39502;SDS011;26970;49.900;10.774;2024-03-06T07:55:37;37.67;;;17.35;;
39502;SDS011;26970;49.900;10.774;2024-03-06T07:58:04;38.75;;;15.73;;
39502;SDS011;26970;49.900;10.774;2024-03-06T08:00:29;38.90;;;16.75;;
39502;SDS011;26970;49.900;10.774;2024-03-06T08:02:56;40.55;;;16.05;;
39502;SDS011;26970;49.900;10.774;2024-03-06T08:05:22;42.03;;;16.92;;
39502;SDS011;26970;49.900;10.774;2024-03-06T08:07:47;48.13;;;17.83;;
39502;SDS011;26970;49.900;10.774;2024-03-06T08:10:13;34.63;;;15.40;;
39502;SDS011;26970;49.900;10.774;2024-03-06T08:12:39;36.15;;;16.67;;
39502;SDS011;26970;49.900;10.774;2024-03-06T08:15:06;45.20;;;17.27;;
39502;SDS011;26970;49.900;10.774;2024-03-06T08:17:36;38.60;;;17.67;;
39502;SDS011;26970;49.900;10.774;2024-03-06T08:20:06;35.75;;;15.02;;
39502;SDS011;26970;49.900;10.774;2024-03-06T08:22:37;43.55;;;16.25;;
39502;SDS011;26970;49.900;10.774;2024-03-06T08:25:05;36.08;;;14.45;;
39502;SDS011;26970;49.900;10.774;2024-03-06T08:27:35;31.30;;;13.40;;
39502;SDS011;26970;49.900;10.774;2024-03-06T08:30:05;38.50;;;16.38;;
39502;SDS011;26970;49.900;10.774;2024-03-06T08:32:31;37.78;;;17.27;;
39502;SDS011;26970;49.900;10.774;2024-03-06T08:35:05;34.10;;;15.30;;
39502;SDS011;26970;49.900;10.774;2024-03-06T08:37:36;38.13;;;15.43;;
39502;SDS011;26970;49.900;10.774;2024-03-06T08:40:05;36.85;;;12.80;;
39502;SDS011;26970;49.900;10.774;2024-03-06T08:42:40;28.50;;;11.93;;
39502;SDS011;26970;49.900;10.774;2024-03-06T08:45:07;35.28;;;14.15;;
39502;SDS011;26970;49.900;10.774;2024-03-06T08:47:33;29.30;;;12.38;;
39502;SDS011;26970;49.900;10.774;2024-03-06T08:49:59;32.03;;;14.23;;
39502;SDS011;26970;49.900;10.774;2024-03-06T08:52:25;28.48;;;12.05;;
39502;SDS011;26970;49.900;10.774;2024-03-06T08:54:50;33.33;;;12.57;;
39502;SDS011;26970;49.900;10.774;2024-03-06T08:57:16;30.45;;;13.80;;
39502;SDS011;26970;49.900;10.774;2024-03-06T08:59:42;27.80;;;12.07;;
39502;SDS011;26970;49.900;10.774;2024-03-06T09:02:15;23.38;;;10.00;;
39502;SDS011;26970;49.900;10.774;2024-03-06T09:04:45;31.92;;;12.45;;
39502;SDS011;26970;49.900;10.774;2024-03-06T09:07:11;29.30;;;11.05;;
39502;SDS011;26970;49.900;10.774;2024-03-06T09:09:38;25.58;;;11.18;;
39502;SDS011;26970;49.900;10.774;2024-03-06T09:12:07;25.75;;;10.13;;
39502;SDS011;26970;49.900;10.774;2024-03-06T09:14:37;15.02;;;7.65;;
39502;SDS011;26970;49.900;10.774;2024-03-06T09:17:03;18.27;;;8.60;;
39502;SDS011;26970;49.900;10.774;2024-03-06T09:19:30;25.92;;;10.45;;
39502;SDS011;26970;49.900;10.774;2024-03-06T09:21:56;23.67;;;11.05;;
39502;SDS011;26970;49.900;10.774;2024-03-06T09:24:22;23.73;;;10.80;;
39502;SDS011;26970;49.900;10.774;2024-03-06T09:26:49;23.50;;;10.25;;
39502;SDS011;26970;49.900;10.774;2024-03-06T09:29:16;24.40;;;10.52;;
39502;SDS011;26970;49.900;10.774;2024-03-06T09:31:41;24.88;;;10.60;;
39502;SDS011;26970;49.900;10.774;2024-03-06T09:34:07;21.15;;;9.50;;
39502;SDS011;26970;49.900;10.774;2024-03-06T09:36:36;25.30;;;11.27;;
39502;SDS011;26970;49.900;10.774;2024-03-06T09:39:02;23.33;;;9.60;;
39502;SDS011;26970;49.900;10.774;2024-03-06T09:41:29;20.67;;;9.88;;
39502;SDS011;26970;49.900;10.774;2024-03-06T09:43:55;20.90;;;9.65;;
39502;SDS011;26970;49.900;10.774;2024-03-06T09:46:21;23.33;;;9.48;;
39502;SDS011;26970;49.900;10.774;2024-03-06T09:48:47;18.27;;;8.50;;
39502;SDS011;26970;49.900;10.774;2024-03-06T09:51:17;21.85;;;9.80;;
39502;SDS011;26970;49.900;10.774;2024-03-06T09:53:48;22.83;;;9.32;;
39502;SDS011;26970;49.900;10.774;2024-03-06T09:56:18;25.05;;;10.38;;
39502;SDS011;26970;49.900;10.774;2024-03-06T09:58:50;22.35;;;8.82;;
39502;SDS011;26970;49.900;10.774;2024-03-06T10:01:22;22.02;;;9.57;;
39502;SDS011;26970;49.900;10.774;2024-03-06T10:03:57;26.15;;;10.88;;
39502;SDS011;26970;49.900;10.774;2024-03-06T10:06:30;22.48;;;10.57;;
39502;SDS011;26970;49.900;10.774;2024-03-06T10:09:03;24.67;;;10.70;;
39502;SDS011;26970;49.900;10.774;2024-03-06T10:11:37;23.05;;;10.95;;
39502;SDS011;26970;49.900;10.774;2024-03-06T10:14:07;19.77;;;9.48;;
39502;SDS011;26970;49.900;10.774;2024-03-06T10:16:33;20.55;;;9.93;;
39502;SDS011;26970;49.900;10.774;2024-03-06T10:19:16;18.63;;;9.10;;
39502;SDS011;26970;49.900;10.774;2024-03-06T10:21:43;20.48;;;9.00;;
39502;SDS011;26970;49.900;10.774;2024-03-06T10:24:13;19.88;;;9.63;;
39502;SDS011;26970;49.900;10.774;2024-03-06T10:26:45;22.48;;;10.15;;
39502;SDS011;26970;49.900;10.774;2024-03-06T10:29:13;24.73;;;10.50;;
39502;SDS011;26970;49.900;10.774;2024-03-06T10:31:51;18.15;;;8.95;;
39502;SDS011;26970;49.900;10.774;2024-03-06T10:34:17;22.40;;;10.27;;
39502;SDS011;26970;49.900;10.774;2024-03-06T10:36:43;22.95;;;9.50;;
39502;SDS011;26970;49.900;10.774;2024-03-06T10:39:10;21.50;;;9.93;;
39502;SDS011;26970;49.900;10.774;2024-03-06T10:41:39;19.30;;;8.90;;
39502;SDS011;26970;49.900;10.774;2024-03-06T10:44:08;18.27;;;8.73;;
39502;SDS011;26970;49.900;10.774;2024-03-06T10:46:43;18.20;;;8.52;;
39502;SDS011;26970;49.900;10.774;2024-03-06T10:49:12;19.77;;;8.50;;
39502;SDS011;26970;49.900;10.774;2024-03-06T10:51:42;19.05;;;8.57;;
39502;SDS011;26970;49.900;10.774;2024-03-06T10:54:11;18.25;;;8.90;;
39502;SDS011;26970;49.900;10.774;2024-03-06T10:56:39;16.13;;;7.55;;
39502;SDS011;26970;49.900;10.774;2024-03-06T10:59:08;19.45;;;8.68;;
39502;SDS011;26970;49.900;10.774;2024-03-06T11:01:36;17.65;;;8.10;;
39502;SDS011;26970;49.900;10.774;2024-03-06T11:04:02;17.90;;;8.30;;
39502;SDS011;26970;49.900;10.774;2024-03-06T11:06:30;14.68;;;8.07;;
39502;SDS011;26970;49.900;10.774;2024-03-06T11:08:56;19.85;;;8.45;;
39502;SDS011;26970;49.900;10.774;2024-03-06T11:11:22;15.23;;;7.40;;
39502;SDS011;26970;49.900;10.774;2024-03-06T11:13:49;17.73;;;7.45;;
39502;SDS011;26970;49.900;10.774;2024-03-06T11:16:15;21.90;;;8.63;;
39502;SDS011;26970;49.900;10.774;2024-03-06T11:18:41;19.40;;;8.43;;
39502;SDS011;26970;49.900;10.774;2024-03-06T11:23:38;15.32;;;6.70;;
39502;SDS011;26970;49.900;10.774;2024-03-06T11:26:37;16.58;;;7.70;;
39502;SDS011;26970;49.900;10.774;2024-03-06T11:29:02;20.15;;;7.78;;
39502;SDS011;26970;49.900;10.774;2024-03-06T11:31:28;21.50;;;8.75;;
39502;SDS011;26970;49.900;10.774;2024-03-06T11:33:53;16.52;;;7.53;;
39502;SDS011;26970;49.900;10.774;2024-03-06T11:36:27;16.92;;;9.60;;
39502;SDS011;26970;49.900;10.774;2024-03-06T11:38:59;18.33;;;8.57;;
39502;SDS011;26970;49.900;10.774;2024-03-06T11:41:26;16.60;;;7.28;;
39502;SDS011;26970;49.900;10.774;2024-03-06T11:43:53;14.75;;;7.47;;
39502;SDS011;26970;49.900;10.774;2024-03-06T11:46:20;14.95;;;6.93;;
39502;SDS011;26970;49.900;10.774;2024-03-06T11:48:56;13.95;;;7.53;;
39502;SDS011;26970;49.900;10.774;2024-03-06T11:51:22;17.88;;;8.10;;
39502;SDS011;26970;49.900;10.774;2024-03-06T11:53:51;22.00;;;8.90;;
39502;SDS011;26970;49.900;10.774;2024-03-06T11:56:18;18.73;;;8.07;;
39502;SDS011;26970;49.900;10.774;2024-03-06T11:58:44;19.40;;;8.65;;
39502;SDS011;26970;49.900;10.774;2024-03-06T12:01:10;24.02;;;10.65;;
39502;SDS011;26970;49.900;10.774;2024-03-06T12:03:36;18.90;;;8.63;;
39502;SDS011;26970;49.900;10.774;2024-03-06T12:06:02;19.33;;;10.02;;
39502;SDS011;26970;49.900;10.774;2024-03-06T12:08:28;20.20;;;10.32;;
39502;SDS011;26970;49.900;10.774;2024-03-06T12:10:53;20.95;;;10.35;;
39502;SDS011;26970;49.900;10.774;2024-03-06T12:13:23;24.73;;;9.85;;
39502;SDS011;26970;49.900;10.774;2024-03-06T12:15:49;23.40;;;10.57;;
39502;SDS011;26970;49.900;10.774;2024-03-06T12:18:16;22.52;;;11.27;;
39502;SDS011;26970;49.900;10.774;2024-03-06T12:20:43;23.05;;;10.20;;
39502;SDS011;26970;49.900;10.774;2024-03-06T12:23:18;24.25;;;11.05;;
39502;SDS011;26970;49.900;10.774;2024-03-06T12:25:48;26.02;;;12.00;;
39502;SDS011;26970;49.900;10.774;2024-03-06T12:28:14;28.35;;;12.68;;
39502;SDS011;26970;49.900;10.774;2024-03-06T12:30:43;29.08;;;11.43;;
39502;SDS011;26970;49.900;10.774;2024-03-06T12:33:09;23.08;;;10.98;;
39502;SDS011;26970;49.900;10.774;2024-03-06T12:35:39;23.08;;;10.82;;
39502;SDS011;26970;49.900;10.774;2024-03-06T12:38:14;31.08;;;13.60;;
39502;SDS011;26970;49.900;10.774;2024-03-06T12:40:41;25.80;;;12.40;;
39502;SDS011;26970;49.900;10.774;2024-03-06T12:43:07;32.80;;;13.05;;
39502;SDS011;26970;49.900;10.774;2024-03-06T12:45:34;24.77;;;11.30;;
39502;SDS011;26970;49.900;10.774;2024-03-06T12:48:01;27.45;;;12.63;;
39502;SDS011;26970;49.900;10.774;2024-03-06T12:50:27;26.40;;;11.43;;
39502;SDS011;26970;49.900;10.774;2024-03-06T12:52:53;25.48;;;13.25;;
39502;SDS011;26970;49.900;10.774;2024-03-06T12:55:19;21.65;;;10.57;;
39502;SDS011;26970;49.900;10.774;2024-03-06T12:57:45;24.55;;;10.73;;
39502;SDS011;26970;49.900;10.774;2024-03-06T13:00:11;24.83;;;11.15;;
39502;SDS011;26970;49.900;10.774;2024-03-06T13:02:43;20.35;;;9.95;;
39502;SDS011;26970;49.900;10.774;2024-03-06T13:05:10;22.92;;;8.10;;
39502;SDS011;26970;49.900;10.774;2024-03-06T13:07:36;24.48;;;11.45;;
39502;SDS011;26970;49.900;10.774;2024-03-06T13:10:04;26.10;;;12.20;;
39502;SDS011;26970;49.900;10.774;2024-03-06T13:12:30;24.83;;;11.18;;
39502;SDS011;26970;49.900;10.774;2024-03-06T13:14:56;26.10;;;12.32;;
39502;SDS011;26970;49.900;10.774;2024-03-06T13:17:22;24.27;;;11.70;;
39502;SDS011;26970;49.900;10.774;2024-03-06T13:19:47;24.23;;;12.07;;
39502;SDS011;26970;49.900;10.774;2024-03-06T13:22:14;23.80;;;10.90;;
39502;SDS011;26970;49.900;10.774;2024-03-06T13:24:39;23.60;;;11.50;;
39502;SDS011;26970;49.900;10.774;2024-03-06T13:27:05;29.23;;;13.00;;
39502;SDS011;26970;49.900;10.774;2024-03-06T13:29:31;26.35;;;11.98;;
39502;SDS011;26970;49.900;10.774;2024-03-06T13:31:56;21.98;;;11.20;;
39502;SDS011;26970;49.900;10.774;2024-03-06T13:34:22;24.52;;;12.63;;
39502;SDS011;26970;49.900;10.774;2024-03-06T13:36:47;26.77;;;12.05;;
39502;SDS011;26970;49.900;10.774;2024-03-06T13:39:13;20.42;;;10.02;;
39502;SDS011;26970;49.900;10.774;2024-03-06T13:41:39;27.73;;;12.25;;
39502;SDS011;26970;49.900;10.774;2024-03-06T13:44:05;23.52;;;12.10;;
39502;SDS011;26970;49.900;10.774;2024-03-06T13:46:32;23.25;;;10.90;;
39502;SDS011;26970;49.900;10.774;2024-03-06T13:48:58;21.48;;;9.80;;
39502;SDS011;26970;49.900;10.774;2024-03-06T13:51:24;26.55;;;11.73;;
39502;SDS011;26970;49.900;10.774;2024-03-06T13:53:49;23.85;;;11.90;;
39502;SDS011;26970;49.900;10.774;2024-03-06T13:56:15;21.05;;;9.55;;
39502;SDS011;26970;49.900;10.774;2024-03-06T13:58:40;27.20;;;11.25;;
39502;SDS011;26970;49.900;10.774;2024-03-06T14:01:06;23.52;;;11.57;;
39502;SDS011;26970;49.900;10.774;2024-03-06T14:03:32;23.98;;;11.65;;
39502;SDS011;26970;49.900;10.774;2024-03-06T14:06:02;26.05;;;10.82;;
39502;SDS011;26970;49.900;10.774;2024-03-06T14:08:29;25.05;;;11.40;;
39502;SDS011;26970;49.900;10.774;2024-03-06T14:10:54;25.30;;;12.15;;